Time;durP1;ratioP1;P1;durP2;ratioP2;P2;SDS_P1;SDS_P2;PMS_P1;PMS_P2;Temp;Humidity;BMP_temperature;BMP_pressure;BME280_temperature;BME280_humidity;BME280_pressure;Samples;Min_cycle;Max_cycle;Signal;HPM_P1;HPM_P2
2023/06/19 00:01:40;;;;;;;3.55;2.65;;;23.10;99.90;;;23.68;96.03;100284.13;5121951;28;20054;-81
2023/06/19 00:04:16;;;;;;;3.80;2.80;;;23.10;99.90;;;23.63;96.88;100292.22;5125024;28;20054;-80
2023/06/19 00:06:48;;;;;;;4.32;3.10;;;23.00;99.90;;;23.55;97.45;100287.06;5125307;28;20049;-81
2023/06/19 00:09:20;;;;;;;3.95;2.78;;;23.00;99.90;;;23.50;98.62;100277.47;5122676;28;20074;-81
2023/06/19 00:11:52;;;;;;;3.20;2.75;;;22.90;99.90;;;23.43;100.00;100274.09;5122762;28;20043;-80
2023/06/19 00:14:24;;;;;;;4.35;3.20;;;22.80;99.90;;;23.37;100.00;100276.91;5122842;28;20509;-81
2023/06/19 00:16:57;;;;;;;4.15;2.80;;;22.80;99.90;;;23.34;100.00;100270.78;5125181;28;20039;-81
2023/06/19 00:19:30;;;;;;;3.75;2.92;;;22.70;99.90;;;23.27;100.00;100276.25;5120895;28;20106;-81
2023/06/19 00:22:02;;;;;;;3.03;2.42;;;22.70;99.90;;;23.22;100.00;100272.00;5125953;28;20420;-81
2023/06/19 00:24:34;;;;;;;4.00;3.10;;;22.60;99.90;;;23.18;100.00;100276.50;5129225;28;20104;-81
2023/06/19 00:27:08;;;;;;;3.55;3.00;;;22.60;99.90;;;23.13;100.00;100288.16;5116649;28;20051;-81
2023/06/19 00:29:40;;;;;;;4.25;3.00;;;22.50;99.90;;;23.12;100.00;100281.09;5122025;28;20058;-82
2023/06/19 00:32:15;;;;;;;4.78;3.35;;;22.60;99.90;;;23.11;100.00;100285.56;5123006;28;20058;-81
2023/06/19 00:34:49;;;;;;;4.70;2.92;;;22.50;99.90;;;23.07;100.00;100283.88;5116668;28;20061;-82
2023/06/19 00:37:21;;;;;;;4.65;3.63;;;22.40;99.90;;;23.06;100.00;100291.88;5122159;28;20047;-81
2023/06/19 00:39:53;;;;;;;4.20;3.30;;;22.50;99.90;;;23.04;100.00;100294.59;5123895;28;20054;-84
2023/06/19 00:42:26;;;;;;;3.70;2.97;;;22.40;99.90;;;23.01;100.00;100300.84;5129591;28;20523;-82
2023/06/19 00:44:58;;;;;;;5.07;3.47;;;22.40;99.90;;;22.96;100.00;100297.44;5113110;28;20063;-82
2023/06/19 00:47:30;;;;;;;3.72;3.20;;;22.40;99.90;;;22.94;100.00;100309.00;5122242;28;20051;-80
2023/06/19 00:50:04;;;;;;;5.28;3.75;;;22.30;99.90;;;22.91;100.00;100309.09;5110220;28;20043;-82
2023/06/19 00:52:36;;;;;;;4.57;3.20;;;22.30;99.90;;;22.86;100.00;100309.19;5116479;28;20417;-82
2023/06/19 00:55:09;;;;;;;5.18;3.50;;;22.30;99.90;;;22.82;100.00;100315.47;5117213;28;20055;-82
2023/06/19 00:57:42;;;;;;;5.40;3.50;;;22.20;99.90;;;22.79;100.00;100323.47;5139834;28;20075;-79
2023/06/19 01:00:15;;;;;;;4.25;3.20;;;22.20;99.90;;;22.80;100.00;100327.88;5123026;28;20047;-81
2023/06/19 01:02:48;;;;;;;4.75;3.58;;;22.20;99.90;;;22.81;100.00;100342.03;5129684;28;20043;-82
2023/06/19 01:05:22;;;;;;;5.63;3.83;;;22.20;99.90;;;22.83;100.00;100337.59;5129427;28;20063;-81
2023/06/19 01:08:00;;;;;;;6.03;4.03;;;22.20;99.90;;;22.86;100.00;100333.09;5133690;28;20081;-81
2023/06/19 01:10:40;;;;;;;6.00;4.00;;;22.20;99.90;;;22.90;100.00;100329.47;5131448;28;20047;-83
2023/06/19 01:13:19;;;;;;;5.47;4.55;;;22.30;99.90;;;22.91;99.22;100325.91;5138542;28;20078;-81
2023/06/19 01:15:52;;;;;;;5.95;4.55;;;22.40;99.90;;;22.96;98.59;100332.00;5130000;28;20057;-81
2023/06/19 01:18:26;;;;;;;5.80;4.18;;;22.40;99.90;;;22.98;98.31;100330.16;5143626;28;20044;-82
2023/06/19 01:21:11;;;;;;;6.40;4.35;;;22.40;99.90;;;22.96;97.32;100324.00;5129650;28;20035;-81
2023/06/19 01:23:45;;;;;;;6.68;4.75;;;22.50;99.90;;;22.94;97.14;100320.50;5130483;28;20501;-80
2023/06/19 01:26:18;;;;;;;6.43;4.70;;;22.50;99.90;;;22.96;96.89;100318.69;5129327;28;20043;-81
2023/06/19 01:28:50;;;;;;;5.85;4.30;;;22.50;99.90;;;22.99;96.64;100309.75;5141025;28;20139;-83
2023/06/19 01:31:29;;;;;;;6.68;4.68;;;22.50;99.90;;;23.01;96.52;100314.13;5125764;28;20054;-82
2023/06/19 01:34:02;;;;;;;6.45;4.47;;;22.50;99.90;;;23.00;96.75;100306.19;5129879;28;20504;-82
2023/06/19 01:36:36;;;;;;;6.18;4.10;;;22.50;99.90;;;22.98;96.99;100311.56;5123212;28;20046;-82
2023/06/19 01:39:10;;;;;;;5.78;4.30;;;22.50;99.90;;;22.97;97.08;100309.81;5129890;28;20579;-82
2023/06/19 01:41:43;;;;;;;;;;;22.50;99.90;;;22.94;96.90;100325.81;5130254;28;20040;-82
2023/06/19 01:44:16;;;;;;;5.90;4.40;;;22.40;99.90;;;22.93;96.79;100323.19;5134513;28;19934;-81
2023/06/19 01:46:52;;;;;;;5.15;3.83;;;22.40;99.90;;;22.92;97.66;100324.97;5130654;28;20580;-82
2023/06/19 01:49:24;;;;;;;5.93;4.13;;;22.30;99.90;;;22.89;97.65;100319.75;5129740;28;20043;-83
2023/06/19 01:51:57;;;;;;;5.20;3.88;;;22.30;99.90;;;22.87;97.33;100324.22;5129135;28;20069;-82
2023/06/19 01:54:30;;;;;;;7.35;4.40;;;22.30;99.90;;;22.83;96.28;100311.03;5131653;28;20046;-82
2023/06/19 01:57:03;;;;;;;5.65;4.70;;;22.30;99.90;;;22.79;95.96;100326.13;5121493;28;20043;-82
2023/06/19 01:59:36;;;;;;;4.78;3.95;;;22.20;99.90;;;22.82;95.68;100325.19;5129193;28;20050;-81
2023/06/19 02:02:08;;;;;;;5.43;4.20;;;22.20;99.90;;;22.81;95.95;100340.25;5129681;28;20051;-82
2023/06/19 02:04:42;;;;;;;5.93;4.10;;;22.20;99.90;;;22.84;96.87;100344.66;5129475;28;20071;-82
2023/06/19 02:07:14;;;;;;;5.30;4.32;;;22.30;99.90;;;22.85;96.76;100347.25;5129577;28;20047;-81
2023/06/19 02:09:48;;;;;;;5.75;3.97;;;22.20;99.90;;;22.86;96.56;100346.38;5121525;28;20047;-82
2023/06/19 02:12:21;;;;;;;5.13;4.13;;;22.30;99.90;;;22.87;95.61;100348.13;5128674;28;20051;-81
2023/06/19 02:14:53;;;;;;;5.40;4.30;;;22.30;99.90;;;22.87;94.78;100349.91;5122849;28;20049;-82
2023/06/19 02:17:25;;;;;;;5.78;4.57;;;22.30;99.90;;;22.90;94.36;100350.72;5129428;28;20516;-82
2023/06/19 02:19:57;;;;;;;6.22;4.40;;;22.30;99.90;;;22.96;93.69;100355.91;5129136;28;20045;-81
2023/06/19 02:22:29;;;;;;;5.20;4.10;;;22.40;99.90;;;23.00;92.85;100362.88;5128652;28;20054;-81
2023/06/19 02:25:03;;;;;;;6.07;4.30;;;22.40;99.90;;;23.00;92.55;100365.53;5129844;28;20061;-82
2023/06/19 02:27:35;;;;;;;6.68;4.70;;;22.40;99.90;;;23.06;92.05;100361.88;5129694;28;20043;-82
2023/06/19 02:30:08;;;;;;;5.85;4.18;;;22.50;99.90;;;23.09;91.44;100366.25;5140169;28;20500;-81
2023/06/19 02:32:40;;;;;;;6.90;4.80;;;22.50;99.90;;;23.09;90.80;100371.56;5127154;28;20053;-81
2023/06/19 02:35:15;;;;;;;7.03;4.95;;;22.50;99.90;;;23.12;90.69;100376.81;5120895;28;20051;-82
2023/06/19 02:37:47;;;;;;;6.00;4.22;;;22.60;99.90;;;23.14;90.30;100380.28;5134636;28;20390;-82
2023/06/19 02:40:20;;;;;;;6.50;4.75;;;22.60;99.90;;;23.13;90.12;100374.09;5134008;28;20043;-82
2023/06/19 02:42:54;;;;;;;7.35;4.93;;;22.60;99.90;;;23.17;89.70;100380.25;5134704;28;20077;-82
2023/06/19 02:45:26;;;;;;;6.65;4.65;;;22.60;99.90;;;23.15;89.44;100390.91;5143308;28;20142;-82
2023/06/19 02:47:58;;;;;;;6.78;4.80;;;22.60;99.90;;;23.13;89.48;100395.38;5135036;28;20569;-82
2023/06/19 02:50:30;;;;;;;5.85;4.68;;;22.60;99.90;;;23.15;89.19;100400.69;5134025;28;20047;-82
2023/06/19 02:53:02;;;;;;;6.80;4.78;;;22.60;99.90;;;23.15;89.10;100398.91;5135094;28;20051;-82
2023/06/19 02:55:36;;;;;;;7.32;5.07;;;22.60;99.90;;;23.17;88.59;100391.75;5133806;28;20051;-83
2023/06/19 02:58:09;;;;;;;6.50;4.90;;;22.60;99.70;;;23.16;88.03;100403.28;5145936;28;20062;-82
2023/06/19 03:00:44;;;;;;;6.70;4.68;;;22.60;99.50;;;23.15;87.80;100406.00;5135341;28;20037;-82
2023/06/19 03:03:16;;;;;;;6.32;4.65;;;22.70;99.40;;;23.15;87.75;100398.03;5135396;28;20104;-82
2023/06/19 03:05:48;;;;;;;5.68;3.95;;;22.60;99.40;;;23.16;88.02;100399.75;5150447;28;20058;-82
2023/06/19 03:08:21;;;;;;;5.45;4.07;;;22.60;99.40;;;23.16;88.03;100416.59;5147656;28;20427;-82
2023/06/19 03:10:54;;;;;;;5.78;4.13;;;22.60;99.40;;;23.15;88.08;100414.84;5149977;28;20051;-82
2023/06/19 03:13:27;;;;;;;6.00;4.70;;;22.60;99.40;;;23.15;88.30;100416.63;5148155;28;20595;-83
2023/06/19 03:15:59;;;;;;;5.65;4.20;;;22.60;99.50;;;23.14;89.09;100412.19;5146546;28;20058;-80
2023/06/19 03:18:31;;;;;;;6.22;3.85;;;22.60;99.70;;;23.12;88.03;100419.34;5132206;28;20447;-82
2023/06/19 03:21:03;;;;;;;6.03;4.13;;;22.60;99.40;;;23.11;87.42;100428.22;5134912;28;20126;-82
2023/06/19 03:23:36;;;;;;;5.20;4.10;;;22.60;99.20;;;23.09;87.30;100432.72;5130765;28;20082;-83
2023/06/19 03:26:10;;;;;;;6.05;4.45;;;22.50;99.20;;;23.07;87.37;100439.81;5142551;28;20141;-83
2023/06/19 03:28:43;;;;;;;5.70;4.18;;;22.50;99.10;;;23.05;87.60;100434.56;5128748;28;20138;-82
2023/06/19 03:31:16;;;;;;;6.63;4.20;;;22.50;99.20;;;23.03;87.91;100436.38;5128772;28;20066;-82
2023/06/19 03:33:49;;;;;;;5.32;3.63;;;22.50;99.30;;;23.01;87.90;100438.19;5130598;28;20398;-83
2023/06/19 03:36:22;;;;;;;6.15;4.38;;;22.50;99.20;;;22.99;87.79;100446.19;5130782;28;20058;-83
2023/06/19 03:38:56;;;;;;;5.93;4.50;;;22.50;99.30;;;22.97;88.47;100445.34;5130678;28;20075;-84
2023/06/19 03:41:33;;;;;;;5.70;4.50;;;22.40;99.40;;;22.95;88.92;100447.19;5131022;28;20046;-83
2023/06/19 03:44:05;;;;;;;6.45;4.35;;;22.40;99.60;;;22.96;88.90;100459.56;5130470;28;20588;-83
2023/06/19 03:46:37;;;;;;;6.05;4.07;;;22.40;99.60;;;22.95;88.83;100467.53;5139314;28;20059;-83
2023/06/19 03:49:10;;;;;;;6.03;4.28;;;22.40;99.60;;;22.95;87.89;100465.78;5138502;28;20057;-82
2023/06/19 03:51:42;;;;;;;6.50;4.60;;;22.40;99.30;;;22.96;86.85;100471.97;5131908;28;20460;-83
2023/06/19 03:54:14;;;;;;;6.00;4.50;;;22.40;99.00;;;22.97;85.62;100469.28;5144619;28;20062;-82
2023/06/19 03:56:47;;;;;;;6.25;4.65;;;22.40;98.60;;;22.99;86.17;100475.44;5133091;28;20298;-83
2023/06/19 03:59:19;;;;;;;6.15;3.95;;;22.40;98.70;;;23.01;84.82;100470.94;5131424;28;20252;-84
2023/06/19 04:01:51;;;;;;;5.88;4.07;;;22.50;98.30;;;23.05;84.61;100478.88;5129443;28;20047;-82
2023/06/19 04:04:23;;;;;;;5.30;3.70;;;22.50;98.10;;;23.06;84.92;100488.59;5129882;28;20773;-83
2023/06/19 04:06:55;;;;;;;6.03;3.92;;;22.50;98.20;;;23.08;84.45;100492.06;5130222;28;20416;-83
2023/06/19 04:09:27;;;;;;;6.07;4.18;;;22.50;98.00;;;23.09;83.38;100499.19;5143289;28;20055;-83
2023/06/19 04:12:00;;;;;;;5.78;4.03;;;22.60;97.60;;;23.11;83.28;100507.97;5130313;28;20043;-83
2023/06/19 04:14:33;;;;;;;5.15;3.42;;;22.60;97.50;;;23.13;82.76;100507.03;5140635;28;20468;-82
2023/06/19 04:17:05;;;;;;;5.00;3.67;;;22.60;97.30;;;23.14;81.91;100513.22;5133346;28;20044;-82
2023/06/19 04:19:38;;;;;;;5.25;3.60;;;22.60;97.00;;;23.18;81.75;100517.56;5131870;28;20055;-81
2023/06/19 04:22:10;;;;;;;5.95;3.72;;;22.70;96.90;;;23.19;82.27;100516.66;5132202;28;20043;-83
2023/06/19 04:24:42;;;;;;;4.30;3.05;;;22.60;97.00;;;23.21;81.76;100536.09;5132474;28;20441;-81
2023/06/19 04:27:15;;;;;;;6.80;4.13;;;22.70;96.80;;;23.21;82.32;100537.00;5148074;28;20057;-82
2023/06/19 04:29:47;;;;;;;3.97;3.08;;;22.70;96.90;;;23.25;82.60;100548.44;5133054;28;20047;-83
2023/06/19 04:32:20;;;;;;;5.00;3.05;;;22.70;97.00;;;23.24;84.67;100547.56;5139377;28;20478;-82
2023/06/19 04:34:52;;;;;;;4.85;3.58;;;22.70;97.60;;;23.23;85.37;100553.78;5138026;28;20505;-84
2023/06/19 04:37:24;;;;;;;6.00;3.65;;;22.70;97.90;;;23.22;85.58;100553.84;5137254;28;20066;-82
2023/06/19 04:39:56;;;;;;;4.90;3.40;;;22.70;98.00;;;23.22;86.53;100553.84;5136788;28;20043;-83
2023/06/19 04:42:29;;;;;;;5.25;3.40;;;22.70;98.30;;;23.17;87.22;100550.41;5135722;28;20051;-83
2023/06/19 04:45:01;;;;;;;5.88;3.40;;;22.70;98.60;;;23.10;87.65;100551.44;5135710;28;20074;-83
2023/06/19 04:47:34;;;;;;;6.05;4.03;;;22.60;98.70;;;23.07;88.33;100548.81;5135741;28;20058;-83
2023/06/19 04:50:08;;;;;;;5.40;3.88;;;22.50;99.00;;;23.08;88.98;100545.25;5135722;28;20494;-83
2023/06/19 04:52:40;;;;;;;6.20;4.18;;;22.60;99.20;;;23.13;89.82;100549.56;5144275;28;20055;-82
2023/06/19 04:55:12;;;;;;;5.22;3.35;;;22.60;99.50;;;23.16;89.90;100549.53;5138542;28;20047;-83
2023/06/19 04:57:45;;;;;;;4.72;3.45;;;22.60;99.70;;;23.20;90.49;100558.28;5139067;28;20050;-82
2023/06/19 05:00:19;;;;;;;6.97;4.15;;;22.60;99.80;;;23.20;90.80;100555.63;5139103;28;20043;-82
2023/06/19 05:02:51;;;;;;;4.47;3.03;;;22.60;99.90;;;23.19;91.46;100569.84;5139069;28;20315;-82
2023/06/19 05:05:23;;;;;;;5.47;3.40;;;22.60;99.90;;;23.16;91.67;100580.56;5140767;28;20055;-83
2023/06/19 05:07:55;;;;;;;4.65;3.15;;;22.60;99.90;;;23.12;92.20;100576.19;5155488;28;20027;-83
2023/06/19 05:10:27;;;;;;;4.50;3.20;;;22.60;99.90;;;23.08;92.66;100586.00;5152187;28;20035;-82
2023/06/19 05:13:01;;;;;;;3.88;2.53;;;22.50;99.90;;;23.05;93.00;100594.03;5152612;28;20035;-83
2023/06/19 05:15:33;;;;;;;4.47;2.97;;;22.50;99.90;;;23.03;94.09;100590.56;5165633;28;20051;-83
2023/06/19 05:18:06;;;;;;;5.50;3.70;;;22.40;99.90;;;23.00;94.71;100586.16;5154158;28;20543;-83
2023/06/19 05:20:37;;;;;;;4.75;2.80;;;22.50;99.90;;;22.99;95.27;100589.72;5159503;28;20055;-83
2023/06/19 05:23:09;;;;;;;4.63;3.00;;;22.40;99.90;;;22.97;95.62;100585.34;5134804;28;20055;-83
2023/06/19 05:25:43;;;;;;;4.43;2.90;;;22.40;99.90;;;22.94;95.70;100585.41;5136238;28;20057;-83
2023/06/19 05:28:16;;;;;;;5.40;3.20;;;22.40;99.90;;;22.92;95.99;100584.56;5156511;28;20082;-83
2023/06/19 05:30:50;;;;;;;4.57;2.67;;;22.30;99.90;;;22.93;96.12;100584.53;5135943;28;20577;-82
2023/06/19 05:33:23;;;;;;;4.50;2.72;;;22.30;99.90;;;23.04;96.34;100586.97;5135987;28;20078;-83
2023/06/19 05:35:55;;;;;;;4.35;3.00;;;22.40;99.90;;;23.19;96.21;100585.78;5133967;28;20047;-82
2023/06/19 05:38:30;;;;;;;5.85;3.50;;;22.50;99.90;;;23.38;95.51;100586.28;5133726;28;20082;-83
2023/06/19 05:41:02;;;;;;;6.60;3.75;;;22.70;99.90;;;23.59;94.41;100579.63;5134355;28;20156;-83
2023/06/19 05:43:36;;;;;;;6.65;3.92;;;22.90;99.90;;;23.79;93.77;100582.75;5134114;28;20051;-83
2023/06/19 05:46:11;;;;;;;7.15;4.22;;;23.00;99.90;;;24.02;92.74;100591.06;5133491;28;20047;-82
2023/06/19 05:48:43;;;;;;;6.63;3.83;;;23.20;99.90;;;24.17;91.88;100580.97;5135118;28;20078;-82
2023/06/19 05:51:15;;;;;;;4.97;3.45;;;23.40;99.90;;;24.28;90.18;100594.91;5135177;28;20058;-82
2023/06/19 05:53:49;;;;;;;5.45;3.50;;;23.50;99.90;;;24.39;89.50;100599.97;5148844;28;20055;-82
2023/06/19 05:56:22;;;;;;;5.47;3.75;;;23.70;99.90;;;24.48;88.63;100613.09;5134457;28;20047;-81
2023/06/19 05:58:56;;;;;;;5.68;3.70;;;23.70;99.80;;;24.61;87.78;100615.38;5132481;28;20067;-81
2023/06/19 06:01:28;;;;;;;5.35;3.63;;;23.90;99.60;;;24.71;87.64;100610.69;5142887;28;20046;-81
2023/06/19 06:04:01;;;;;;;4.95;3.78;;;23.90;99.50;;;24.81;86.53;100619.31;5131868;28;20047;-80
2023/06/19 06:06:33;;;;;;;5.35;3.65;;;24.00;99.20;;;24.89;86.19;100618.19;5130636;28;20093;-80
2023/06/19 06:09:05;;;;;;;6.38;3.45;;;24.10;99.00;;;25.02;85.32;100626.72;5141864;28;20059;-80
2023/06/19 06:11:37;;;;;;;6.47;3.35;;;24.30;98.70;;;24.92;85.43;100632.38;5127818;28;20492;-79
2023/06/19 06:14:10;;;;;;;5.35;3.50;;;24.20;98.50;;;24.88;86.27;100634.22;5130013;28;20039;-79
2023/06/19 06:16:42;;;;;;;4.72;3.20;;;24.20;98.70;;;24.82;86.17;100637.06;5143942;28;20425;-79
2023/06/19 06:19:16;;;;;;;4.93;3.10;;;24.10;98.60;;;24.78;86.22;100641.63;5130061;28;20126;-79
2023/06/19 06:21:48;;;;;;;5.53;3.33;;;24.10;98.60;;;24.78;86.79;100635.41;5137122;28;20648;-80
2023/06/19 06:24:20;;;;;;;4.80;3.28;;;24.10;98.70;;;24.83;87.25;100638.81;5161753;28;20061;-79
2023/06/19 06:26:52;;;;;;;5.55;3.45;;;24.10;98.90;;;24.90;86.83;100629.72;5151263;28;20050;-79
2023/06/19 06:29:26;;;;;;;4.45;3.08;;;24.20;98.80;;;24.98;86.69;100621.56;5150817;28;20642;-79
2023/06/19 06:32:05;;;;;;;5.20;3.33;;;24.20;98.70;;;25.03;86.34;100620.47;5150567;28;20047;-80
2023/06/19 06:34:37;;;;;;;5.32;3.10;;;24.30;98.70;;;25.07;85.53;100632.00;5151055;28;20049;-79
2023/06/19 06:37:09;;;;;;;5.20;3.53;;;24.30;98.50;;;25.26;86.22;100629.69;5151365;28;20046;-79
2023/06/19 06:39:41;;;;;;;5.40;3.70;;;24.40;98.70;;;25.54;84.09;100621.75;5150665;28;20051;-79
2023/06/19 06:42:13;;;;;;;5.88;3.55;;;24.70;98.20;;;25.80;83.22;100618.31;5164779;28;20042;-79
2023/06/19 06:44:47;;;;;;;5.53;3.22;;;24.80;97.90;;;26.02;81.86;100622.09;5162765;28;20038;-79
2023/06/19 06:47:19;;;;;;;5.70;3.53;;;25.10;97.30;;;26.32;81.60;100628.22;5159996;28;20451;-79
2023/06/19 06:49:54;;;;;;;5.63;3.45;;;25.40;97.30;;;26.47;78.78;100629.53;5148899;28;20054;-80
2023/06/19 06:52:27;;;;;;;4.97;3.22;;;25.50;96.30;;;26.52;77.52;100636.47;5148037;28;20123;-79
2023/06/19 06:54:59;;;;;;;3.88;2.92;;;25.60;95.80;;;26.60;74.75;100638.88;5155670;28;20105;-80
2023/06/19 06:57:31;;;;;;;4.80;3.20;;;25.70;94.30;;;26.84;73.67;100652.34;5148947;28;20047;-79
2023/06/19 07:00:09;;;;;;;4.97;3.03;;;25.90;94.10;;;26.95;73.73;100647.53;5148690;28;20057;-81
2023/06/19 07:02:42;;;;;;;6.13;3.28;;;26.00;93.70;;;27.07;75.07;100649.78;5153178;28;20042;-80
2023/06/19 07:05:14;;;;;;;6.30;3.38;;;26.10;94.20;;;27.16;75.28;100649.44;5146689;28;20057;-81
2023/06/19 07:07:46;;;;;;;4.72;3.28;;;26.20;94.20;;;27.38;73.06;100654.00;5161241;28;20114;-78
2023/06/19 07:10:18;;;;;;;4.80;3.40;;;26.40;93.50;;;27.51;67.72;100652.63;5146583;28;20520;-80
2023/06/19 07:12:51;;;;;;;4.93;3.20;;;26.50;91.10;;;27.59;68.95;100653.22;5147184;28;20110;-78
2023/06/19 07:15:24;;;;;;;4.30;3.20;;;26.60;91.40;;;27.70;69.95;100647.47;5156825;28;20082;-78
2023/06/19 07:17:57;;;;;;;5.88;3.50;;;26.70;91.70;;;27.73;69.11;100655.41;5144502;28;20035;-78
2023/06/19 07:20:32;;;;;;;5.13;3.03;;;26.70;91.30;;;27.74;68.14;100654.47;5144518;28;20508;-77
2023/06/19 07:23:05;;;;;;;4.32;3.00;;;26.70;90.70;;;27.61;68.94;100656.72;5154107;28;20046;-80
2023/06/19 07:25:37;;;;;;;3.75;2.55;;;26.60;90.80;;;27.48;69.88;100663.47;5148192;28;20051;-80
2023/06/19 07:28:09;;;;;;;4.53;2.60;;;26.60;91.10;;;27.49;71.03;100649.16;5148050;28;20054;-79
2023/06/19 07:30:43;;;;;;;3.53;2.60;;;26.50;91.40;;;27.62;71.72;100654.91;5166627;22;20058;-65
2023/06/19 07:33:15;;;;;;;4.43;2.90;;;26.60;92.10;;;27.67;70.97;100651.13;5144571;28;20055;-66
2023/06/19 07:35:47;;;;;;;4.75;2.60;;;26.70;91.70;;;27.74;71.05;100651.81;5142258;28;20416;-65
2023/06/19 07:38:19;;;;;;;3.97;2.60;;;26.70;91.60;;;27.84;71.07;100650.50;5137136;28;20055;-65
2023/06/19 07:40:52;;;;;;;3.42;2.35;;;26.80;91.60;;;27.78;71.40;100650.75;5130583;28;20053;-66
2023/06/19 07:43:24;;;;;;;3.95;2.70;;;26.70;91.90;;;27.80;71.34;100657.78;5125110;28;20049;-65
2023/06/19 07:45:58;;;;;;;3.92;2.63;;;26.70;91.60;;;27.85;71.02;100657.63;5142509;28;20050;-65
2023/06/19 07:48:30;;;;;;;3.40;2.70;;;26.70;91.70;;;27.85;70.80;100660.31;5140895;28;20500;-65
2023/06/19 07:51:02;;;;;;;4.15;2.20;;;26.80;91.30;;;27.78;70.29;100664.16;5133934;28;20050;-66
2023/06/19 07:53:35;;;;;;;3.65;2.17;;;26.70;91.10;;;27.67;69.10;100661.84;5122754;28;20047;-65
2023/06/19 07:56:08;;;;;;;2.05;1.67;;;26.70;90.60;;;27.48;68.75;100656.31;5125866;28;20101;-65
2023/06/19 07:58:41;;;;;;;2.72;1.73;;;26.60;90.20;;;27.49;69.48;100662.53;5125581;28;20047;-66
2023/06/19 08:01:14;;;;;;;2.45;1.70;;;26.50;90.50;;;27.49;68.88;100659.84;5164428;28;20050;-65
2023/06/19 08:03:47;;;;;;;1.92;1.50;;;26.50;90.20;;;27.48;67.69;100658.09;5139173;28;20051;-65
2023/06/19 08:06:19;;;;;;;2.95;1.30;;;26.50;89.60;;;27.46;66.91;100657.31;5142059;28;20532;-65
2023/06/19 08:08:51;;;;;;;2.38;1.13;;;26.50;88.70;;;27.44;66.72;100659.13;5110771;28;20043;-66
2023/06/19 08:11:24;;;;;;;1.77;1.00;;;26.40;88.40;;;27.27;66.51;100657.97;5135239;28;20043;-66
2023/06/19 08:13:56;;;;;;;1.05;0.95;;;26.30;87.80;;;27.14;66.96;100659.34;5141498;28;20042;-64
2023/06/19 08:16:30;;;;;;;1.10;0.90;;;26.20;87.90;;;27.40;67.28;100657.53;5125290;28;20062;-65
2023/06/19 08:19:02;;;;;;;1.25;0.98;;;26.30;88.60;;;28.22;65.36;100666.88;5126338;28;20046;-65
2023/06/19 08:21:34;;;;;;;1.05;0.90;;;26.70;88.50;;;29.25;62.29;100661.63;5139702;28;20523;-66
2023/06/19 08:24:07;;;;;;;1.10;1.00;;;27.20;86.80;;;29.97;60.12;100663.72;5140842;28;20050;-65
2023/06/19 08:26:39;;;;;;;1.10;0.90;;;27.70;85.10;;;30.38;58.12;100674.28;5152041;28;20043;-66
2023/06/19 08:29:11;;;;;;;0.98;0.98;;;28.10;83.20;;;30.49;57.13;100670.13;5142143;28;20058;-66
2023/06/19 08:31:45;;;;;;;1.17;0.80;;;28.30;81.70;;;30.95;56.19;100669.66;5131679;28;20046;-66
2023/06/19 08:34:18;;;;;;;1.13;1.00;;;28.50;81.50;;;32.10;53.94;100673.31;5125742;28;20043;-66
2023/06/19 08:36:50;;;;;;;1.75;0.90;;;29.00;79.80;;;32.96;51.73;100665.63;5168133;28;20055;-66
2023/06/19 08:39:22;;;;;;;1.58;0.90;;;29.60;77.60;;;34.14;49.42;100679.88;5126523;28;20059;-67
2023/06/19 08:41:55;;;;;;;1.00;0.90;;;30.30;75.40;;;35.24;46.73;100675.19;5132576;28;20143;-67
2023/06/19 08:44:27;;;;;;;2.05;1.00;;;31.10;72.30;;;34.93;46.37;100679.13;5140614;28;20062;-66
2023/06/19 08:47:01;;;;;;;1.48;0.80;;;31.40;70.00;;;34.35;47.16;100673.06;5135609;28;20047;-66
2023/06/19 08:49:35;;;;;;;1.45;1.00;;;31.20;69.40;;;35.16;46.62;100682.97;5136161;28;20046;-69
2023/06/19 08:52:09;;;;;;;1.08;0.90;;;31.60;69.00;;;36.47;44.46;100697.06;5133731;28;20043;-70
2023/06/19 08:54:44;;;;;;;1.75;1.05;;;32.50;67.00;;;37.62;41.56;100684.44;5140750;28;20516;-70
2023/06/19 08:57:16;;;;;;;0.95;0.88;;;33.40;63.80;;;38.45;39.96;100696.75;5140775;28;20043;-69
2023/06/19 08:59:52;;;;;;;1.05;0.95;;;34.10;61.80;;;38.74;39.08;100691.63;5117141;28;20066;-67
2023/06/19 09:02:37;;;;;;;1.27;1.10;;;34.60;59.90;;;37.74;39.98;100688.03;5140522;28;20279;-69
2023/06/19 09:05:15;;;;;;;0.85;0.82;;;34.40;59.20;;;37.53;40.87;100695.22;5123898;28;20519;-69
2023/06/19 09:07:57;;;;;;;2.25;1.02;;;34.20;59.50;;;37.92;40.14;100689.28;5139509;28;20051;-68
2023/06/19 09:10:30;;;;;;;1.58;0.95;;;34.30;58.90;;;38.15;39.76;100683.84;5140804;28;20420;-68
2023/06/19 09:13:05;;;;;;;1.38;1.10;;;34.40;58.60;;;37.81;39.65;100677.56;5156088;28;20039;-67
2023/06/19 09:15:38;;;;;;;1.15;0.82;;;34.30;58.00;;;36.90;40.71;100695.53;5139512;28;20059;-68
2023/06/19 09:18:13;;;;;;;1.52;0.90;;;33.90;58.10;;;35.89;42.02;100689.47;5159096;28;20054;-69
2023/06/19 09:20:47;;;;;;;1.10;1.00;;;33.30;58.60;;;35.26;43.70;100703.88;5143998;28;20057;-68
2023/06/19 09:23:22;;;;;;;2.05;1.10;;;32.90;59.40;;;34.92;44.19;100705.34;5143305;28;20058;-69
2023/06/19 09:25:59;;;;;;;1.15;1.00;;;32.50;59.80;;;34.57;44.69;100702.31;5143059;28;20500;-68
2023/06/19 09:28:33;;;;;;;1.20;1.10;;;32.30;60.20;;;34.12;45.16;100696.22;5134488;28;20055;-69
2023/06/19 09:31:06;;;;;;;1.52;0.82;;;31.90;60.50;;;33.73;45.88;100696.91;5141901;28;20065;-68
2023/06/19 09:33:41;;;;;;;3.10;1.00;;;31.70;61.20;;;33.56;46.66;100694.41;5126373;28;20043;-69
2023/06/19 09:36:13;;;;;;;1.35;1.00;;;31.50;61.60;;;33.51;47.00;100702.78;5132750;28;20054;-69
2023/06/19 09:38:48;;;;;;;1.80;1.15;;;31.60;62.00;;;33.35;47.65;100696.56;5142192;28;20046;-69
2023/06/19 09:41:20;;;;;;;1.70;1.25;;;31.50;62.20;;;33.17;47.96;100706.66;5134917;28;20047;-68
2023/06/19 09:43:57;;;;;;;1.50;1.23;;;31.60;62.10;;;33.00;48.64;100702.28;5160193;28;20044;-68
2023/06/19 09:46:33;;;;;;;1.65;1.30;;;31.50;62.40;;;32.76;48.79;100699.19;5141623;28;20047;-69
2023/06/19 09:49:07;;;;;;;2.00;1.30;;;31.40;62.30;;;32.66;49.34;100697.97;5128668;28;20042;-69
2023/06/19 09:51:42;;;;;;;2.10;1.30;;;31.30;62.80;;;32.29;49.41;100688.44;5142307;28;20054;-68
2023/06/19 09:54:16;;;;;;;1.98;1.20;;;31.10;62.60;;;32.02;50.28;100694.44;5144537;28;20459;-67
2023/06/19 09:56:51;;;;;;;1.30;1.17;;;30.80;63.10;;;31.96;50.45;100693.91;5129474;28;20052;-67
2023/06/19 09:59:23;;;;;;;1.95;1.60;;;30.80;63.60;;;32.02;50.33;100697.13;5140590;28;20106;-67
2023/06/19 10:01:57;;;;;;;1.42;1.20;;;30.80;63.60;;;31.82;49.86;100700.03;5142837;28;20110;-67
2023/06/19 10:04:31;;;;;;;1.50;1.33;;;30.60;63.00;;;31.64;50.74;100698.34;5133688;28;20053;-67
2023/06/19 10:07:04;;;;;;;1.73;1.33;;;30.50;63.40;;;31.64;51.28;100703.75;5142298;28;20042;-66
2023/06/19 10:09:36;;;;;;;1.35;1.23;;;30.40;64.00;;;31.76;51.45;100700.38;5150371;28;20134;-66
2023/06/19 10:12:13;;;;;;;1.67;1.58;;;30.50;64.30;;;31.81;50.18;100701.88;5143482;28;20050;-64
2023/06/19 10:14:49;;;;;;;2.03;1.50;;;30.60;63.30;;;31.92;50.83;100703.13;5141471;28;20061;-63
2023/06/19 10:17:21;;;;;;;3.55;1.58;;;30.70;63.70;;;32.02;50.37;100707.91;5143831;28;20126;-65
2023/06/19 10:19:54;;;;;;;2.20;1.27;;;30.80;63.40;;;31.97;50.14;100693.81;5143236;28;20408;-64
2023/06/19 10:22:32;;;;;;;2.05;1.58;;;30.80;63.10;;;31.91;50.83;100698.69;5142224;28;20043;-64
2023/06/19 10:25:05;;;;;;;2.88;1.48;;;30.80;63.50;;;31.90;49.68;100691.56;5142054;28;20084;-65
2023/06/19 10:27:39;;;;;;;2.10;1.60;;;30.70;62.70;;;31.85;50.21;100692.69;5145347;28;20062;-62
2023/06/19 10:30:18;;;;;;;2.55;1.50;;;30.70;63.00;;;31.83;50.33;100686.50;5120744;29;20051;-62
2023/06/19 10:32:51;;;;;;;2.58;1.40;;;30.70;63.10;;;31.99;50.20;100686.50;5141214;28;20113;-66
2023/06/19 10:35:25;;;;;;;2.15;1.60;;;30.80;63.20;;;32.18;49.02;100689.03;5143291;28;20047;-67
2023/06/19 10:37:57;;;;;;;2.90;1.77;;;30.90;62.20;;;32.30;49.05;100691.03;5129121;28;20051;-66